Weather at Santo Ângelo Airport

Public forecast

Using degrees Celsius for public forecast. Weather courtesy of forecast.io.

Current aviation weather report (METAR) for Santo Ângelo Airport

Report is more than 6 hours old.

Retrieved 2020/09/30 22:00 UTC (24 days ago):

SBNM 302200Z AUTO 02007KT CAVOK 31/19 Q1006

Closest aviation forecast (TAF) to Santo Ângelo Airport

Closest forecast is Santa Maria Airport, 89.5 nm (165.7 km) SSE. Retrieved 2020/10/24 12:27 UTC (5 hours ago):

TAF SBSM 240900Z 2412/2424 25003KT 9999 FEW033 TX28/2417Z TN22/2424Z BECMG 2421/2423 09003KT RMK PAY